createdAt,value
2017-12-19T00:02:00.188Z,50.78
2017-12-19T00:04:27.629Z,48.80
2017-12-19T00:06:55.213Z,30.62
2017-12-19T00:09:22.652Z,41.85
2017-12-19T00:11:50.125Z,38.45
2017-12-19T00:14:17.569Z,45.05
2017-12-19T00:16:48.000Z,52.15
2017-12-19T00:19:15.467Z,47.42
2017-12-19T00:21:44.235Z,53.50
2017-12-19T00:24:11.998Z,57.85
2017-12-19T00:26:39.433Z,44.40
2017-12-19T00:29:06.872Z,51.00
2017-12-19T00:31:46.570Z,58.72
2017-12-19T00:34:14.005Z,65.43
2017-12-19T00:36:41.533Z,65.80
2017-12-19T00:39:08.938Z,97.60
2017-12-19T00:41:36.378Z,49.03
2017-12-19T00:44:04.102Z,65.45
2017-12-19T00:46:32.311Z,54.92
2017-12-19T00:49:15.631Z,56.83
2017-12-19T00:51:43.073Z,76.35
2017-12-19T00:54:10.542Z,88.87
2017-12-19T00:56:38.006Z,56.50
2017-12-19T00:59:05.436Z,62.42
2017-12-19T01:01:37.956Z,86.63
2017-12-19T01:04:05.512Z,83.07
2017-12-19T01:06:33.919Z,76.60
2017-12-19T01:09:01.385Z,54.08
2017-12-19T01:11:33.829Z,66.62
2017-12-19T01:14:01.276Z,62.75
2017-12-19T01:16:28.712Z,60.28
2017-12-19T01:18:56.314Z,57.85
2017-12-19T01:21:23.785Z,80.15
2017-12-19T01:23:52.161Z,75.45
2017-12-19T01:26:19.597Z,52.42
2017-12-19T01:28:47.109Z,68.15
2017-12-19T01:31:15.353Z,86.90
2017-12-19T01:33:43.158Z,65.87
2017-12-19T01:36:10.596Z,59.08
2017-12-19T01:38:39.142Z,103.20
2017-12-19T01:41:06.577Z,64.65
2017-12-19T01:43:37.072Z,78.80
2017-12-19T01:46:05.278Z,73.75
2017-12-19T01:48:32.736Z,104.47
2017-12-19T01:51:00.225Z,53.75
2017-12-19T01:53:27.693Z,90.43
2017-12-19T01:55:55.133Z,83.15
2017-12-19T01:58:22.673Z,183.32
2017-12-19T02:00:50.148Z,151.70
2017-12-19T02:03:17.616Z,110.50
2017-12-19T02:05:45.081Z,141.80
2017-12-19T02:08:12.522Z,141.00
2017-12-19T02:10:40.135Z,151.48
2017-12-19T02:13:08.365Z,168.90
2017-12-19T02:15:36.753Z,160.52
2017-12-19T02:18:04.218Z,223.07
2017-12-19T02:20:31.652Z,124.65
2017-12-19T02:22:59.245Z,165.60
2017-12-19T02:25:26.711Z,119.50
2017-12-19T02:27:55.076Z,129.18
2017-12-19T02:30:22.525Z,96.80
2017-12-19T02:32:50.014Z,88.70
2017-12-19T02:35:18.229Z,100.68
2017-12-19T02:37:45.698Z,120.97
2017-12-19T02:40:13.167Z,196.15
2017-12-19T02:42:52.402Z,136.27
2017-12-19T02:45:19.849Z,154.57
2017-12-19T02:47:53.481Z,128.25
2017-12-19T02:50:20.921Z,180.93
2017-12-19T02:52:48.424Z,147.45
2017-12-19T02:55:16.628Z,169.73
2017-12-19T02:57:44.101Z,111.20
2017-12-19T03:00:11.543Z,191.48
2017-12-19T03:02:42.829Z,124.53
2017-12-19T03:05:10.401Z,155.20
2017-12-19T03:07:38.617Z,228.18
2017-12-19T03:10:06.825Z,128.65
2017-12-19T03:12:34.414Z,138.98
2017-12-19T03:15:02.632Z,176.63
2017-12-19T03:17:30.075Z,135.07
2017-12-19T03:19:57.547Z,203.18
2017-12-19T03:22:24.991Z,103.10
2017-12-19T03:24:52.785Z,95.15
2017-12-19T03:27:20.264Z,131.68
2017-12-19T03:29:47.723Z,129.52
2017-12-19T03:32:15.172Z,129.30
2017-12-19T03:34:42.708Z,122.32
2017-12-19T03:37:10.156Z,95.53
2017-12-19T03:39:37.621Z,81.18
2017-12-19T03:42:05.081Z,73.62
2017-12-19T03:44:37.698Z,76.80
2017-12-19T03:47:06.064Z,71.03
2017-12-19T03:49:33.504Z,66.55
2017-12-19T03:52:00.973Z,73.15
2017-12-19T03:54:28.441Z,78.45
2017-12-19T03:56:55.889Z,75.37
2017-12-19T03:59:23.365Z,68.32
2017-12-19T04:01:50.805Z,70.25
2017-12-19T04:04:18.249Z,66.25
2017-12-19T04:06:58.773Z,69.43
2017-12-19T04:09:26.209Z,65.15
2017-12-19T04:11:54.449Z,61.35
2017-12-19T04:14:21.921Z,65.20
2017-12-19T04:16:49.393Z,72.62
2017-12-19T04:19:16.838Z,62.45
2017-12-19T04:21:44.429Z,65.60
2017-12-19T04:24:12.696Z,72.15
2017-12-19T04:26:42.898Z,58.63
2017-12-19T04:29:10.340Z,76.43
2017-12-19T04:31:39.430Z,61.65
2017-12-19T04:34:06.873Z,64.70
2017-12-19T04:36:34.319Z,71.05
2017-12-19T04:39:01.934Z,70.20
2017-12-19T04:41:29.369Z,63.78
2017-12-19T04:43:56.833Z,68.80
2017-12-19T04:46:24.278Z,71.87
2017-12-19T04:48:51.745Z,71.50
2017-12-19T04:51:19.181Z,70.55
2017-12-19T04:53:46.648Z,63.33
2017-12-19T04:56:14.093Z,70.32
2017-12-19T04:58:41.606Z,81.03
2017-12-19T05:01:21.913Z,68.15
2017-12-19T05:03:49.384Z,132.77
2017-12-19T05:06:16.822Z,74.55
2017-12-19T05:08:44.402Z,138.93
2017-12-19T05:11:11.844Z,67.45
2017-12-19T05:13:39.284Z,69.85
2017-12-19T05:16:06.781Z,77.57
2017-12-19T05:18:34.217Z,82.10
2017-12-19T05:21:01.685Z,68.82
2017-12-19T05:23:29.124Z,109.30
2017-12-19T05:26:03.362Z,78.10
2017-12-19T05:28:30.849Z,68.22
2017-12-19T05:30:59.064Z,95.97
2017-12-19T05:33:32.266Z,103.75
2017-12-19T05:35:59.704Z,78.85
2017-12-19T05:38:27.147Z,81.65
2017-12-19T05:40:55.409Z,87.30
2017-12-19T05:43:23.622Z,96.75
2017-12-19T05:45:51.060Z,106.97
2017-12-19T05:48:18.733Z,106.85
2017-12-19T05:50:46.181Z,109.18
2017-12-19T05:53:14.394Z,273.27
2017-12-19T05:55:41.869Z,122.70
2017-12-19T05:58:09.316Z,158.37
2017-12-19T06:00:36.780Z,188.43
2017-12-19T06:03:04.226Z,243.05
2017-12-19T06:05:31.901Z,262.25
2017-12-19T06:07:59.352Z,125.40
2017-12-19T06:13:18.249Z,126.82
2017-12-19T06:15:45.714Z,87.35
2017-12-19T06:18:13.154Z,89.55
2017-12-19T06:20:40.905Z,88.25
2017-12-19T06:23:08.361Z,84.43
2017-12-19T06:25:35.801Z,94.30
2017-12-19T06:28:03.470Z,97.60
2017-12-19T06:30:36.857Z,90.97
2017-12-19T06:33:04.300Z,123.57
2017-12-19T06:35:31.746Z,128.57
2017-12-19T06:38:00.119Z,88.07
2017-12-19T06:40:28.350Z,106.15
2017-12-19T06:42:55.816Z,92.00
2017-12-19T06:45:23.264Z,80.12
2017-12-19T06:47:50.709Z,86.53
2017-12-19T06:50:22.017Z,68.87
2017-12-19T06:52:53.996Z,113.80
2017-12-19T06:55:21.450Z,85.62
2017-12-19T06:57:50.278Z,103.68
2017-12-19T07:00:17.722Z,118.20
2017-12-19T07:02:45.936Z,103.53
2017-12-19T07:05:13.401Z,97.80
2017-12-19T07:07:40.860Z,126.40
2017-12-19T07:10:08.468Z,104.22
2017-12-19T07:12:35.937Z,104.28
2017-12-19T07:15:03.396Z,103.70
2017-12-19T07:17:30.878Z,85.55
2017-12-19T07:20:10.392Z,98.75
2017-12-19T07:22:37.921Z,146.23
2017-12-19T07:25:05.365Z,116.62
2017-12-19T07:27:33.689Z,102.78
2017-12-19T07:30:01.173Z,73.62
2017-12-19T07:32:28.645Z,117.85
2017-12-19T07:34:58.897Z,161.80
2017-12-19T07:37:26.332Z,68.15
2017-12-19T07:39:54.537Z,83.65
2017-12-19T07:42:25.790Z,90.22
2017-12-19T07:44:53.221Z,72.85
2017-12-19T07:47:21.560Z,70.43
2017-12-19T07:49:49.000Z,165.95
2017-12-19T07:52:16.498Z,236.98
2017-12-19T07:54:44.712Z,290.02
2017-12-19T07:57:12.154Z,208.98
2017-12-19T07:59:39.621Z,180.87
2017-12-19T08:02:07.839Z,138.27
2017-12-19T08:04:35.437Z,201.57
2017-12-19T08:07:02.876Z,184.18
2017-12-19T08:09:30.381Z,108.60
2017-12-19T08:11:57.825Z,123.47
2017-12-19T08:14:25.273Z,204.57
2017-12-19T08:16:52.747Z,110.25
2017-12-19T08:19:20.213Z,139.55
2017-12-19T08:21:47.654Z,200.95
2017-12-19T08:24:16.434Z,373.70
2017-12-19T08:26:50.770Z,382.25
2017-12-19T08:29:18.412Z,279.77
2017-12-19T08:31:45.853Z,307.77
2017-12-19T08:34:13.297Z,260.23
2017-12-19T08:36:41.537Z,119.35
2017-12-19T08:39:09.005Z,194.85
2017-12-19T08:41:38.408Z,165.02
2017-12-19T08:44:06.154Z,168.95
2017-12-19T08:46:36.445Z,99.35
2017-12-19T08:49:03.917Z,96.07
2017-12-19T08:51:33.386Z,77.55
2017-12-19T08:54:01.613Z,109.10
2017-12-19T08:56:29.053Z,125.25
2017-12-19T08:58:56.526Z,106.97
2017-12-19T09:01:27.997Z,106.53
2017-12-19T09:03:55.511Z,204.50
2017-12-19T09:06:22.965Z,233.10
2017-12-19T09:08:50.433Z,221.73
2017-12-19T09:11:17.872Z,466.35
2017-12-19T09:13:45.349Z,235.82
2017-12-19T09:16:15.830Z,496.92
2017-12-19T09:18:44.050Z,410.63
2017-12-19T09:21:11.665Z,168.95
2017-12-19T09:23:39.106Z,149.90
2017-12-19T09:26:06.549Z,136.37
2017-12-19T09:28:34.079Z,111.05
2017-12-19T09:31:11.975Z,127.05
2017-12-19T09:33:39.463Z,143.23
2017-12-19T09:36:06.905Z,145.52
2017-12-19T09:38:34.350Z,139.20
2017-12-19T09:41:01.914Z,205.48
2017-12-19T09:43:39.122Z,96.35
2017-12-19T09:46:06.604Z,157.02
2017-12-19T09:48:34.069Z,147.45
2017-12-19T09:51:01.510Z,91.12
2017-12-19T09:53:35.049Z,124.45
2017-12-19T09:56:03.258Z,156.40
2017-12-19T09:58:30.790Z,244.40
2017-12-19T10:00:58.261Z,130.00
2017-12-19T10:03:25.709Z,147.13
2017-12-19T10:06:06.945Z,221.73
2017-12-19T10:08:34.621Z,247.05
2017-12-19T10:11:02.095Z,156.15
2017-12-19T10:13:30.354Z,164.00
2017-12-19T10:16:01.605Z,184.02
2017-12-19T10:18:29.056Z,212.60
2017-12-19T10:20:56.721Z,290.58
2017-12-19T10:23:24.196Z,221.68
2017-12-19T10:25:52.398Z,211.73
2017-12-19T10:28:19.877Z,105.78
2017-12-19T10:30:47.334Z,211.52
2017-12-19T10:33:14.912Z,192.85
2017-12-19T10:35:43.309Z,247.18
2017-12-19T10:38:10.805Z,112.30
2017-12-19T10:40:38.245Z,261.73
2017-12-19T10:43:06.478Z,293.70
2017-12-19T10:45:33.926Z,228.98
2017-12-19T10:48:04.418Z,215.65
2017-12-19T10:50:31.870Z,345.67
2017-12-19T10:53:00.198Z,314.92
2017-12-19T10:55:27.721Z,269.05
2017-12-19T10:57:55.965Z,223.65
2017-12-19T11:00:24.180Z,300.33
2017-12-19T11:02:51.673Z,374.70
2017-12-19T11:05:26.797Z,369.20
2017-12-19T11:07:54.272Z,272.33
2017-12-19T11:10:21.861Z,272.05
2017-12-19T11:12:50.134Z,209.43
2017-12-19T11:15:18.343Z,228.65
2017-12-19T11:17:45.785Z,236.27
2017-12-19T11:20:13.257Z,332.83
2017-12-19T11:22:40.710Z,270.70
2017-12-19T11:25:08.143Z,314.55
2017-12-19T11:27:36.490Z,156.02
2017-12-19T11:30:03.936Z,235.88
2017-12-19T11:32:35.264Z,185.82
2017-12-19T11:35:03.252Z,401.40
2017-12-19T11:37:30.704Z,369.42
2017-12-19T11:39:58.152Z,285.83
2017-12-19T11:42:25.655Z,324.65
2017-12-19T11:44:53.092Z,322.35
2017-12-19T11:47:20.540Z,309.23
2017-12-19T11:49:48.010Z,364.17
2017-12-19T11:52:15.459Z,408.02
2017-12-19T11:54:43.131Z,345.85
2017-12-19T11:57:10.577Z,418.90
2017-12-19T11:59:38.020Z,242.50
2017-12-19T12:02:05.493Z,319.73
2017-12-19T12:04:33.929Z,278.30
2017-12-19T12:07:01.374Z,275.60
2017-12-19T12:09:29.613Z,204.35
2017-12-19T12:11:57.061Z,287.02
2017-12-19T12:14:24.676Z,176.30
2017-12-19T12:16:52.887Z,207.27
2017-12-19T12:19:24.976Z,237.50
2017-12-19T12:21:52.421Z,168.82
2017-12-19T12:24:19.861Z,286.33
2017-12-19T12:26:47.333Z,168.77
2017-12-19T12:29:14.780Z,202.90
2017-12-19T12:31:42.390Z,266.12
2017-12-19T12:34:10.606Z,396.63
2017-12-19T12:36:42.141Z,231.65
2017-12-19T12:39:09.585Z,324.17
2017-12-19T12:42:00.056Z,368.37
2017-12-19T12:44:27.505Z,336.05
2017-12-19T12:46:54.961Z,384.75
2017-12-19T12:49:22.581Z,600.25
2017-12-19T12:51:56.037Z,455.48
2017-12-19T12:54:23.535Z,305.80
2017-12-19T12:56:50.972Z,377.80
2017-12-19T12:59:19.230Z,245.95
2017-12-19T13:01:50.730Z,233.68
2017-12-19T13:04:18.162Z,414.67
2017-12-19T13:06:46.376Z,755.08
2017-12-19T13:09:13.825Z,378.88
2017-12-19T13:11:41.817Z,362.73
2017-12-19T13:14:09.266Z,402.23
2017-12-19T13:16:36.714Z,565.80
2017-12-19T13:19:11.065Z,416.40
2017-12-19T13:21:38.504Z,410.08
2017-12-19T13:24:06.117Z,393.45
2017-12-19T13:29:25.070Z,325.55
2017-12-19T13:31:52.513Z,317.15
2017-12-19T13:37:10.638Z,270.02
2017-12-19T13:39:38.117Z,351.77
2017-12-19T13:42:18.442Z,239.63
2017-12-19T13:44:46.021Z,203.60
2017-12-19T13:47:14.225Z,228.48
2017-12-19T13:49:41.668Z,328.10
2017-12-19T13:52:09.136Z,450.23
2017-12-19T13:57:37.274Z,214.38
2017-12-19T14:00:05.134Z,278.27
2017-12-19T14:02:33.345Z,290.40
2017-12-19T14:05:04.669Z,286.45
2017-12-19T14:07:32.142Z,358.20
2017-12-19T14:09:59.645Z,322.80
2017-12-19T14:12:27.089Z,197.37
2017-12-19T14:14:54.557Z,374.60
2017-12-19T14:17:22.119Z,231.02
2017-12-19T14:19:49.557Z,228.02
2017-12-19T14:22:17.962Z,337.15
2017-12-19T14:24:45.477Z,327.00
2017-12-19T14:27:12.934Z,279.90
2017-12-19T14:29:40.466Z,401.52
2017-12-19T14:32:08.680Z,429.75
2017-12-19T14:34:36.149Z,185.65
2017-12-19T14:37:03.598Z,420.15
2017-12-19T14:39:31.473Z,349.92
2017-12-19T14:41:58.923Z,281.05
2017-12-19T14:44:26.365Z,409.95
2017-12-19T14:47:00.656Z,159.70
2017-12-19T14:49:28.908Z,271.27
2017-12-19T14:51:56.348Z,380.27
2017-12-19T14:54:23.845Z,250.93
2017-12-19T14:56:52.057Z,175.25
2017-12-19T14:59:20.273Z,176.18
2017-12-19T15:01:47.745Z,362.45
2017-12-19T15:04:15.190Z,231.55
2017-12-19T15:06:43.016Z,296.55
2017-12-19T15:09:10.460Z,211.20
2017-12-19T15:11:37.897Z,213.50
2017-12-19T15:14:05.380Z,170.02
2017-12-19T15:16:32.840Z,226.88
2017-12-19T15:19:00.296Z,189.87
2017-12-19T15:21:27.821Z,209.65
2017-12-19T15:23:56.188Z,214.75
2017-12-19T15:26:23.621Z,146.85
2017-12-19T15:28:51.305Z,237.43
2017-12-19T15:31:18.754Z,208.15
2017-12-19T15:33:46.224Z,151.20
2017-12-19T15:36:13.664Z,208.18
2017-12-19T15:38:41.362Z,178.75
2017-12-19T15:41:09.705Z,141.88
2017-12-19T15:43:37.176Z,94.50
2017-12-19T15:46:04.613Z,114.28
2017-12-19T15:48:34.518Z,180.93
2017-12-19T15:51:01.965Z,132.48
2017-12-19T15:53:29.410Z,126.40
2017-12-19T15:55:57.197Z,126.57
2017-12-19T15:58:24.637Z,244.60
2017-12-19T16:00:52.089Z,133.82
2017-12-19T16:03:19.572Z,246.90
2017-12-19T16:05:47.049Z,387.42
2017-12-19T16:08:14.496Z,200.35
2017-12-19T16:10:42.061Z,217.75
2017-12-19T16:13:09.505Z,334.37
2017-12-19T16:15:52.855Z,199.68
2017-12-19T16:18:20.369Z,296.15
2017-12-19T16:20:47.822Z,171.75
2017-12-19T16:23:15.440Z,179.60
2017-12-19T16:25:44.890Z,152.77
2017-12-19T16:28:12.330Z,144.30
2017-12-19T16:30:39.937Z,134.85
2017-12-19T16:33:08.453Z,174.20
2017-12-19T16:35:36.733Z,131.43
2017-12-19T16:38:05.030Z,238.73
2017-12-19T16:40:32.497Z,196.68
2017-12-19T16:43:00.397Z,195.20
2017-12-19T16:45:27.860Z,155.68
2017-12-19T16:47:55.315Z,268.60
2017-12-19T16:50:22.966Z,128.98
2017-12-19T16:52:50.421Z,181.27
2017-12-19T16:55:17.917Z,162.98
2017-12-19T16:57:45.361Z,157.32
2017-12-19T17:00:12.801Z,295.75
2017-12-19T17:02:40.269Z,509.42
2017-12-19T17:05:07.891Z,330.30
2017-12-19T17:07:35.334Z,123.38
2017-12-19T17:10:02.817Z,114.82
2017-12-19T17:12:30.263Z,130.20
2017-12-19T17:14:57.825Z,109.22
2017-12-19T17:17:25.293Z,115.55
2017-12-19T17:19:54.762Z,115.40
2017-12-19T17:22:22.969Z,126.70
2017-12-19T17:24:50.533Z,137.12
2017-12-19T17:27:17.996Z,317.73
2017-12-19T17:29:45.435Z,235.27
2017-12-19T17:32:14.923Z,124.30
2017-12-19T17:34:42.420Z,119.10
2017-12-19T17:37:10.037Z,71.78
2017-12-19T17:39:38.265Z,58.78
2017-12-19T17:42:06.665Z,109.18
2017-12-19T17:44:34.301Z,157.50
2017-12-19T17:47:01.754Z,115.35
2017-12-19T17:49:29.197Z,75.12
2017-12-19T17:51:56.668Z,78.07
2017-12-19T17:54:24.138Z,74.50
2017-12-19T17:56:52.528Z,76.70
2017-12-19T17:59:19.998Z,50.90
2017-12-19T18:01:47.444Z,65.05
2017-12-19T18:04:14.937Z,65.75
2017-12-19T18:06:43.134Z,70.25
2017-12-19T18:09:11.724Z,70.75
2017-12-19T18:11:39.168Z,98.55
2017-12-19T18:14:07.838Z,111.00
2017-12-19T18:16:35.290Z,65.95
2017-12-19T18:19:04.033Z,71.40
2017-12-19T18:21:31.498Z,63.22
2017-12-19T18:23:58.962Z,58.17
2017-12-19T18:26:26.816Z,57.25
2017-12-19T18:28:54.261Z,63.45
2017-12-19T18:31:21.710Z,57.67
2017-12-19T18:33:49.189Z,56.35
2017-12-19T18:36:16.637Z,53.60
2017-12-19T18:38:44.084Z,65.57
2017-12-19T18:41:15.498Z,56.17
2017-12-19T18:43:43.702Z,57.55
2017-12-19T18:46:11.137Z,50.10
2017-12-19T18:48:39.373Z,53.55
2017-12-19T18:51:06.837Z,51.35
2017-12-19T18:53:34.302Z,45.33
2017-12-19T18:56:01.750Z,50.33
2017-12-19T18:58:29.405Z,43.70
2017-12-19T19:00:56.851Z,62.78
2017-12-19T19:03:24.289Z,77.00
2017-12-19T19:05:51.757Z,93.90
2017-12-19T19:08:19.194Z,110.85
2017-12-19T19:10:46.661Z,88.68
2017-12-19T19:13:14.100Z,63.42
2017-12-19T19:15:43.338Z,61.28
2017-12-19T19:18:10.778Z,62.83
2017-12-19T19:20:38.222Z,59.80
2017-12-19T19:23:05.808Z,85.60
2017-12-19T19:25:33.252Z,113.15
2017-12-19T19:28:00.693Z,80.30
2017-12-19T19:30:28.259Z,62.67
2017-12-19T19:32:55.696Z,58.28
2017-12-19T19:35:23.969Z,97.05
2017-12-19T19:37:52.173Z,61.17
2017-12-19T19:40:19.654Z,68.45
2017-12-19T19:42:47.093Z,87.07
2017-12-19T19:45:14.534Z,55.97
2017-12-19T19:47:42.135Z,60.12
2017-12-19T19:50:09.628Z,70.70
2017-12-19T19:52:37.834Z,46.90
2017-12-19T19:55:05.288Z,68.80
2017-12-19T19:57:37.367Z,50.50
2017-12-19T20:00:04.808Z,49.30
2017-12-19T20:02:32.490Z,52.03
2017-12-19T20:04:59.921Z,63.25
2017-12-19T20:07:27.413Z,57.60
2017-12-19T20:09:54.851Z,75.75
2017-12-19T20:12:22.284Z,65.85
2017-12-19T20:14:56.598Z,58.33
2017-12-19T20:17:24.830Z,47.92
2017-12-19T20:19:52.270Z,55.25
2017-12-19T20:22:23.437Z,57.62
2017-12-19T20:24:51.561Z,52.50
2017-12-19T20:27:19.041Z,54.67
2017-12-19T20:29:46.626Z,55.10
2017-12-19T20:32:14.138Z,58.87
2017-12-19T20:34:41.579Z,71.80
2017-12-19T20:37:09.816Z,57.95
2017-12-19T20:39:37.375Z,74.15
2017-12-19T20:42:04.942Z,101.70
2017-12-19T20:44:32.393Z,64.55
2017-12-19T20:47:00.815Z,94.03
2017-12-19T20:49:29.026Z,76.60
2017-12-19T20:51:56.526Z,70.40
2017-12-19T20:54:23.962Z,71.53
2017-12-19T20:56:51.404Z,65.47
2017-12-19T20:59:19.730Z,72.00
2017-12-19T21:01:47.961Z,62.97
2017-12-19T21:04:15.406Z,80.93
2017-12-19T21:06:43.194Z,85.12
2017-12-19T21:09:25.254Z,94.95
2017-12-19T21:11:52.717Z,63.08
2017-12-19T21:14:21.641Z,81.50
2017-12-19T21:16:49.089Z,54.65
2017-12-19T21:19:16.540Z,61.70
2017-12-19T21:21:44.421Z,68.43
2017-12-19T21:24:12.032Z,56.42
2017-12-19T21:26:40.407Z,54.03
2017-12-19T21:29:09.812Z,51.58
2017-12-19T21:31:38.072Z,47.88
2017-12-19T21:34:05.673Z,48.05
2017-12-19T21:36:33.118Z,53.45
2017-12-19T21:39:00.622Z,72.32
2017-12-19T21:41:40.937Z,47.55
2017-12-19T21:44:08.429Z,61.28
2017-12-19T21:46:35.878Z,53.92
2017-12-19T21:49:04.095Z,40.17
2017-12-19T21:51:31.741Z,46.00
2017-12-19T21:53:59.189Z,52.15
2017-12-19T21:56:42.613Z,39.25
2017-12-19T21:59:10.081Z,48.25
2017-12-19T22:01:37.561Z,41.15
2017-12-19T22:04:04.992Z,42.83
2017-12-19T22:06:33.745Z,57.10
2017-12-19T22:09:15.580Z,244.07
2017-12-19T22:11:43.021Z,45.35
2017-12-19T22:14:10.512Z,65.53
2017-12-19T22:16:37.945Z,52.40
2017-12-19T22:19:05.411Z,34.58
2017-12-19T22:21:32.853Z,42.35
2017-12-19T22:24:02.996Z,41.22
2017-12-19T22:26:30.446Z,44.17
2017-12-19T22:28:57.885Z,38.00
2017-12-19T22:31:25.387Z,49.33
2017-12-19T22:33:52.876Z,38.72
2017-12-19T22:36:20.317Z,37.25
2017-12-19T22:38:48.528Z,37.42
2017-12-19T22:41:16.116Z,36.55
2017-12-19T22:43:43.554Z,55.28
2017-12-19T22:46:11.046Z,41.55
2017-12-19T22:48:38.485Z,37.70
2017-12-19T22:51:05.922Z,40.80
2017-12-19T22:53:40.151Z,37.78
2017-12-19T22:56:07.616Z,80.70
2017-12-19T22:58:35.053Z,42.22
2017-12-19T23:01:02.819Z,37.70
2017-12-19T23:03:30.249Z,37.10
2017-12-19T23:05:57.689Z,31.40
2017-12-19T23:08:25.919Z,108.68
2017-12-19T23:10:57.402Z,80.10
2017-12-19T23:13:24.870Z,114.45
2017-12-19T23:15:53.078Z,216.50
2017-12-19T23:18:20.584Z,49.60
2017-12-19T23:20:48.150Z,56.58
2017-12-19T23:23:19.311Z,52.78
2017-12-19T23:25:48.489Z,36.03
2017-12-19T23:28:16.870Z,37.47
2017-12-19T23:30:44.357Z,40.95
2017-12-19T23:33:12.565Z,33.20
2017-12-19T23:35:40.769Z,33.78
2017-12-19T23:38:08.426Z,29.95
2017-12-19T23:40:35.865Z,31.55
2017-12-19T23:43:03.300Z,35.13
2017-12-19T23:45:30.769Z,33.42
2017-12-19T23:47:58.206Z,30.80
2017-12-19T23:50:25.664Z,36.30
2017-12-19T23:52:53.101Z,35.30
2017-12-19T23:55:21.386Z,35.60
2017-12-19T23:57:49.594Z,31.40
